sensor_id;sensor_type;location;lat;lon;timestamp;temperature;humidity
17489;DHT22;8861;52.644;4.734;2023-04-06T00:00:10;6.30;99.90
17489;DHT22;8861;52.644;4.734;2023-04-06T00:02:37;6.30;99.90
17489;DHT22;8861;52.644;4.734;2023-04-06T00:05:05;6.30;99.90
17489;DHT22;8861;52.644;4.734;2023-04-06T00:07:33;6.30;99.90
17489;DHT22;8861;52.644;4.734;2023-04-06T00:10:01;6.40;99.90
17489;DHT22;8861;52.644;4.734;2023-04-06T00:12:28;6.40;99.90
17489;DHT22;8861;52.644;4.734;2023-04-06T00:14:56;6.40;99.90
17489;DHT22;8861;52.644;4.734;2023-04-06T00:17:23;6.50;99.90
17489;DHT22;8861;52.644;4.734;2023-04-06T00:19:50;6.50;99.90
17489;DHT22;8861;52.644;4.734;2023-04-06T00:22:17;6.60;99.90
17489;DHT22;8861;52.644;4.734;2023-04-06T00:24:44;6.60;99.90
17489;DHT22;8861;52.644;4.734;2023-04-06T00:27:11;6.60;99.90
17489;DHT22;8861;52.644;4.734;2023-04-06T00:29:39;6.70;99.90
17489;DHT22;8861;52.644;4.734;2023-04-06T00:32:07;6.70;99.90
17489;DHT22;8861;52.644;4.734;2023-04-06T00:34:34;6.70;99.90
17489;DHT22;8861;52.644;4.734;2023-04-06T00:37:01;6.70;99.90
17489;DHT22;8861;52.644;4.734;2023-04-06T00:39:28;6.70;99.90
17489;DHT22;8861;52.644;4.734;2023-04-06T00:41:55;6.80;99.90
17489;DHT22;8861;52.644;4.734;2023-04-06T00:44:23;6.80;99.90
17489;DHT22;8861;52.644;4.734;2023-04-06T00:46:50;6.80;99.90
17489;DHT22;8861;52.644;4.734;2023-04-06T00:49:19;6.80;99.90
17489;DHT22;8861;52.644;4.734;2023-04-06T00:51:49;6.80;99.90
17489;DHT22;8861;52.644;4.734;2023-04-06T00:54:15;6.80;99.90
17489;DHT22;8861;52.644;4.734;2023-04-06T00:56:42;6.90;99.90
17489;DHT22;8861;52.644;4.734;2023-04-06T00:59:10;6.90;99.90
17489;DHT22;8861;52.644;4.734;2023-04-06T01:01:37;6.90;99.90
17489;DHT22;8861;52.644;4.734;2023-04-06T01:04:04;6.90;99.90
17489;DHT22;8861;52.644;4.734;2023-04-06T01:06:32;6.90;99.90
17489;DHT22;8861;52.644;4.734;2023-04-06T01:08:59;6.90;99.90
17489;DHT22;8861;52.644;4.734;2023-04-06T01:11:27;6.90;99.90
17489;DHT22;8861;52.644;4.734;2023-04-06T01:13:54;6.90;99.90
17489;DHT22;8861;52.644;4.734;2023-04-06T01:16:21;6.90;99.90
17489;DHT22;8861;52.644;4.734;2023-04-06T01:18:48;6.80;99.90
17489;DHT22;8861;52.644;4.734;2023-04-06T01:21:15;6.90;99.90
17489;DHT22;8861;52.644;4.734;2023-04-06T01:23:44;6.80;99.90
17489;DHT22;8861;52.644;4.734;2023-04-06T01:26:12;6.80;99.90
17489;DHT22;8861;52.644;4.734;2023-04-06T01:28:39;6.70;99.90
17489;DHT22;8861;52.644;4.734;2023-04-06T01:31:07;6.70;99.90
17489;DHT22;8861;52.644;4.734;2023-04-06T01:33:34;6.70;99.90
17489;DHT22;8861;52.644;4.734;2023-04-06T01:36:01;6.70;99.90
17489;DHT22;8861;52.644;4.734;2023-04-06T01:38:28;6.60;99.90
17489;DHT22;8861;52.644;4.734;2023-04-06T01:40:57;6.60;99.90
17489;DHT22;8861;52.644;4.734;2023-04-06T01:43:24;6.60;99.90
17489;DHT22;8861;52.644;4.734;2023-04-06T01:45:50;6.60;99.90
17489;DHT22;8861;52.644;4.734;2023-04-06T01:48:18;6.60;99.90
17489;DHT22;8861;52.644;4.734;2023-04-06T01:50:45;6.60;99.90
17489;DHT22;8861;52.644;4.734;2023-04-06T01:53:12;6.60;99.90
17489;DHT22;8861;52.644;4.734;2023-04-06T01:55:39;6.60;99.90
17489;DHT22;8861;52.644;4.734;2023-04-06T01:58:10;6.60;99.90
17489;DHT22;8861;52.644;4.734;2023-04-06T02:00:37;6.60;99.90
17489;DHT22;8861;52.644;4.734;2023-04-06T02:03:04;6.60;99.90
17489;DHT22;8861;52.644;4.734;2023-04-06T02:05:32;6.60;99.90
17489;DHT22;8861;52.644;4.734;2023-04-06T02:08:03;6.60;99.90
17489;DHT22;8861;52.644;4.734;2023-04-06T02:10:30;6.60;99.90
17489;DHT22;8861;52.644;4.734;2023-04-06T02:12:57;6.60;99.90
17489;DHT22;8861;52.644;4.734;2023-04-06T02:15:26;6.60;99.90
17489;DHT22;8861;52.644;4.734;2023-04-06T02:17:53;6.60;99.90
17489;DHT22;8861;52.644;4.734;2023-04-06T02:20:20;6.60;99.90
17489;DHT22;8861;52.644;4.734;2023-04-06T02:22:47;6.60;99.90
17489;DHT22;8861;52.644;4.734;2023-04-06T02:25:14;6.60;99.90
17489;DHT22;8861;52.644;4.734;2023-04-06T02:27:41;6.60;99.90
17489;DHT22;8861;52.644;4.734;2023-04-06T02:30:09;6.60;99.90
17489;DHT22;8861;52.644;4.734;2023-04-06T02:32:37;6.60;99.90
17489;DHT22;8861;52.644;4.734;2023-04-06T02:35:05;6.60;99.90
17489;DHT22;8861;52.644;4.734;2023-04-06T02:37:32;6.60;99.90
17489;DHT22;8861;52.644;4.734;2023-04-06T02:39:59;6.60;99.90
17489;DHT22;8861;52.644;4.734;2023-04-06T02:42:26;6.60;99.90
17489;DHT22;8861;52.644;4.734;2023-04-06T02:44:53;6.70;99.90
17489;DHT22;8861;52.644;4.734;2023-04-06T02:47:20;6.70;99.90
17489;DHT22;8861;52.644;4.734;2023-04-06T02:49:48;6.70;99.90
17489;DHT22;8861;52.644;4.734;2023-04-06T02:52:15;6.70;99.90
17489;DHT22;8861;52.644;4.734;2023-04-06T02:54:43;6.70;99.90
17489;DHT22;8861;52.644;4.734;2023-04-06T02:57:10;6.70;99.90
17489;DHT22;8861;52.644;4.734;2023-04-06T02:59:37;6.70;99.90
17489;DHT22;8861;52.644;4.734;2023-04-06T03:02:04;6.70;99.90
17489;DHT22;8861;52.644;4.734;2023-04-06T03:04:31;6.70;99.90
17489;DHT22;8861;52.644;4.734;2023-04-06T03:06:59;6.70;99.90
17489;DHT22;8861;52.644;4.734;2023-04-06T03:09:26;6.70;99.90
17489;DHT22;8861;52.644;4.734;2023-04-06T03:11:53;6.70;99.90
17489;DHT22;8861;52.644;4.734;2023-04-06T03:14:20;6.70;99.90
17489;DHT22;8861;52.644;4.734;2023-04-06T03:16:48;6.70;99.90
17489;DHT22;8861;52.644;4.734;2023-04-06T03:19:15;6.70;99.90
17489;DHT22;8861;52.644;4.734;2023-04-06T03:21:42;6.70;99.90
17489;DHT22;8861;52.644;4.734;2023-04-06T03:24:10;6.70;99.90
17489;DHT22;8861;52.644;4.734;2023-04-06T03:26:38;6.70;99.90
17489;DHT22;8861;52.644;4.734;2023-04-06T03:29:05;6.70;99.90
17489;DHT22;8861;52.644;4.734;2023-04-06T03:31:32;6.70;99.90
17489;DHT22;8861;52.644;4.734;2023-04-06T03:33:59;6.60;99.90
17489;DHT22;8861;52.644;4.734;2023-04-06T03:36:26;6.60;99.90
17489;DHT22;8861;52.644;4.734;2023-04-06T03:38:52;6.60;99.90
17489;DHT22;8861;52.644;4.734;2023-04-06T03:41:21;6.60;99.90
17489;DHT22;8861;52.644;4.734;2023-04-06T03:43:48;6.60;99.90
17489;DHT22;8861;52.644;4.734;2023-04-06T03:46:15;6.60;99.90
17489;DHT22;8861;52.644;4.734;2023-04-06T03:48:42;6.60;99.90
17489;DHT22;8861;52.644;4.734;2023-04-06T03:51:09;6.60;99.90
17489;DHT22;8861;52.644;4.734;2023-04-06T03:53:36;6.60;99.90
17489;DHT22;8861;52.644;4.734;2023-04-06T03:56:04;6.60;99.90
17489;DHT22;8861;52.644;4.734;2023-04-06T03:58:32;6.60;99.90
17489;DHT22;8861;52.644;4.734;2023-04-06T04:00:59;6.60;99.90
17489;DHT22;8861;52.644;4.734;2023-04-06T04:03:26;6.60;99.90
17489;DHT22;8861;52.644;4.734;2023-04-06T04:05:53;6.70;99.90
17489;DHT22;8861;52.644;4.734;2023-04-06T04:08:20;6.70;99.90
17489;DHT22;8861;52.644;4.734;2023-04-06T04:10:47;6.60;99.90
17489;DHT22;8861;52.644;4.734;2023-04-06T04:13:14;6.60;99.90
17489;DHT22;8861;52.644;4.734;2023-04-06T04:15:43;6.60;99.90
17489;DHT22;8861;52.644;4.734;2023-04-06T04:18:10;6.60;99.90
17489;DHT22;8861;52.644;4.734;2023-04-06T04:20:37;6.70;99.90
17489;DHT22;8861;52.644;4.734;2023-04-06T04:23:04;6.60;99.90
17489;DHT22;8861;52.644;4.734;2023-04-06T04:25:31;6.60;99.90
17489;DHT22;8861;52.644;4.734;2023-04-06T04:27:57;6.60;99.90
17489;DHT22;8861;52.644;4.734;2023-04-06T04:30:24;6.60;99.90
17489;DHT22;8861;52.644;4.734;2023-04-06T04:32:53;6.60;99.90
17489;DHT22;8861;52.644;4.734;2023-04-06T04:35:20;6.60;99.90
17489;DHT22;8861;52.644;4.734;2023-04-06T04:37:46;6.60;99.90
17489;DHT22;8861;52.644;4.734;2023-04-06T04:40:13;6.60;99.90
17489;DHT22;8861;52.644;4.734;2023-04-06T04:42:41;6.60;99.90
17489;DHT22;8861;52.644;4.734;2023-04-06T04:45:08;6.50;99.90
17489;DHT22;8861;52.644;4.734;2023-04-06T04:47:35;6.50;99.90
17489;DHT22;8861;52.644;4.734;2023-04-06T04:50:05;6.60;99.90
17489;DHT22;8861;52.644;4.734;2023-04-06T04:52:32;6.50;99.90
17489;DHT22;8861;52.644;4.734;2023-04-06T04:54:59;6.60;99.90
17489;DHT22;8861;52.644;4.734;2023-04-06T04:57:26;6.60;99.90
17489;DHT22;8861;52.644;4.734;2023-04-06T04:59:52;6.60;99.90
17489;DHT22;8861;52.644;4.734;2023-04-06T05:02:19;6.60;99.90
17489;DHT22;8861;52.644;4.734;2023-04-06T05:04:46;6.60;99.90
17489;DHT22;8861;52.644;4.734;2023-04-06T05:07:14;6.60;99.90
17489;DHT22;8861;52.644;4.734;2023-04-06T05:09:44;6.60;99.90
17489;DHT22;8861;52.644;4.734;2023-04-06T05:12:11;6.60;99.90
17489;DHT22;8861;52.644;4.734;2023-04-06T05:14:38;6.60;99.90
17489;DHT22;8861;52.644;4.734;2023-04-06T05:17:05;6.60;99.90
17489;DHT22;8861;52.644;4.734;2023-04-06T05:19:32;6.50;99.90
17489;DHT22;8861;52.644;4.734;2023-04-06T05:21:59;6.50;99.90
17489;DHT22;8861;52.644;4.734;2023-04-06T05:24:27;6.50;99.90
17489;DHT22;8861;52.644;4.734;2023-04-06T05:26:54;6.50;99.90
17489;DHT22;8861;52.644;4.734;2023-04-06T05:29:21;6.40;99.90
17489;DHT22;8861;52.644;4.734;2023-04-06T05:31:48;6.40;99.90
17489;DHT22;8861;52.644;4.734;2023-04-06T05:34:15;6.40;99.90
17489;DHT22;8861;52.644;4.734;2023-04-06T05:36:42;6.40;99.90
17489;DHT22;8861;52.644;4.734;2023-04-06T05:39:09;6.40;99.90
17489;DHT22;8861;52.644;4.734;2023-04-06T05:41:39;6.40;99.90
17489;DHT22;8861;52.644;4.734;2023-04-06T05:44:06;6.40;99.90
17489;DHT22;8861;52.644;4.734;2023-04-06T05:46:33;6.40;99.90
17489;DHT22;8861;52.644;4.734;2023-04-06T05:49:00;6.40;99.90
17489;DHT22;8861;52.644;4.734;2023-04-06T05:51:27;6.50;99.90
17489;DHT22;8861;52.644;4.734;2023-04-06T05:53:53;6.60;99.90
17489;DHT22;8861;52.644;4.734;2023-04-06T05:56:20;6.60;99.90
17489;DHT22;8861;52.644;4.734;2023-04-06T05:58:49;6.70;99.90
17489;DHT22;8861;52.644;4.734;2023-04-06T06:01:16;6.80;99.90
17489;DHT22;8861;52.644;4.734;2023-04-06T06:03:43;7.00;99.90
17489;DHT22;8861;52.644;4.734;2023-04-06T06:06:10;7.10;99.90
17489;DHT22;8861;52.644;4.734;2023-04-06T06:08:37;7.30;99.90
17489;DHT22;8861;52.644;4.734;2023-04-06T06:11:04;7.50;99.90
17489;DHT22;8861;52.644;4.734;2023-04-06T06:13:30;7.60;99.90
17489;DHT22;8861;52.644;4.734;2023-04-06T06:15:59;7.70;99.90
17489;DHT22;8861;52.644;4.734;2023-04-06T06:18:26;7.90;99.90
17489;DHT22;8861;52.644;4.734;2023-04-06T06:20:53;7.90;99.90
17489;DHT22;8861;52.644;4.734;2023-04-06T06:23:20;7.90;99.90
17489;DHT22;8861;52.644;4.734;2023-04-06T06:25:46;7.90;99.90
17489;DHT22;8861;52.644;4.734;2023-04-06T06:28:13;7.90;99.90
17489;DHT22;8861;52.644;4.734;2023-04-06T06:30:40;7.90;99.90
17489;DHT22;8861;52.644;4.734;2023-04-06T06:33:08;7.90;99.90
17489;DHT22;8861;52.644;4.734;2023-04-06T06:35:35;7.90;99.90
17489;DHT22;8861;52.644;4.734;2023-04-06T06:38:02;7.90;99.90
17489;DHT22;8861;52.644;4.734;2023-04-06T06:40:29;7.80;99.90
17489;DHT22;8861;52.644;4.734;2023-04-06T06:42:56;7.80;99.90
17489;DHT22;8861;52.644;4.734;2023-04-06T06:45:23;7.90;99.90
17489;DHT22;8861;52.644;4.734;2023-04-06T06:47:51;7.90;99.90
17489;DHT22;8861;52.644;4.734;2023-04-06T06:50:19;7.90;99.90
17489;DHT22;8861;52.644;4.734;2023-04-06T06:52:46;7.90;99.90
17489;DHT22;8861;52.644;4.734;2023-04-06T06:55:13;7.90;99.90
17489;DHT22;8861;52.644;4.734;2023-04-06T06:57:40;7.90;99.90
17489;DHT22;8861;52.644;4.734;2023-04-06T07:00:09;7.90;99.90
17489;DHT22;8861;52.644;4.734;2023-04-06T07:02:36;7.90;99.90
17489;DHT22;8861;52.644;4.734;2023-04-06T07:05:03;7.90;99.90
17489;DHT22;8861;52.644;4.734;2023-04-06T07:07:33;7.90;99.90
17489;DHT22;8861;52.644;4.734;2023-04-06T07:10:00;8.00;99.90
17489;DHT22;8861;52.644;4.734;2023-04-06T07:12:27;8.00;99.90
17489;DHT22;8861;52.644;4.734;2023-04-06T07:14:54;8.10;99.90
17489;DHT22;8861;52.644;4.734;2023-04-06T07:17:21;8.10;99.90
17489;DHT22;8861;52.644;4.734;2023-04-06T07:19:48;8.20;99.90
17489;DHT22;8861;52.644;4.734;2023-04-06T07:22:15;8.30;99.90
17489;DHT22;8861;52.644;4.734;2023-04-06T07:24:43;8.40;99.90
17489;DHT22;8861;52.644;4.734;2023-04-06T07:27:10;8.50;99.90
17489;DHT22;8861;52.644;4.734;2023-04-06T07:29:38;8.50;99.90
17489;DHT22;8861;52.644;4.734;2023-04-06T07:32:05;8.70;99.90
17489;DHT22;8861;52.644;4.734;2023-04-06T07:34:31;8.70;99.90
17489;DHT22;8861;52.644;4.734;2023-04-06T07:36:59;8.80;99.90
17489;DHT22;8861;52.644;4.734;2023-04-06T07:39:26;8.80;99.90
17489;DHT22;8861;52.644;4.734;2023-04-06T07:41:54;8.90;99.90
17489;DHT22;8861;52.644;4.734;2023-04-06T07:44:21;8.90;99.90
17489;DHT22;8861;52.644;4.734;2023-04-06T07:46:48;9.00;99.90
17489;DHT22;8861;52.644;4.734;2023-04-06T07:49:15;9.10;99.90
17489;DHT22;8861;52.644;4.734;2023-04-06T07:51:42;9.10;99.90
17489;DHT22;8861;52.644;4.734;2023-04-06T07:54:09;9.20;99.90
17489;DHT22;8861;52.644;4.734;2023-04-06T07:56:36;9.40;99.90
17489;DHT22;8861;52.644;4.734;2023-04-06T07:59:04;9.40;99.90
17489;DHT22;8861;52.644;4.734;2023-04-06T08:01:31;9.50;99.90
17489;DHT22;8861;52.644;4.734;2023-04-06T08:03:58;9.60;99.90
17489;DHT22;8861;52.644;4.734;2023-04-06T08:06:27;9.70;99.90
17489;DHT22;8861;52.644;4.734;2023-04-06T08:08:54;9.70;99.90
17489;DHT22;8861;52.644;4.734;2023-04-06T08:11:21;9.70;99.90
17489;DHT22;8861;52.644;4.734;2023-04-06T08:13:48;9.80;99.90
17489;DHT22;8861;52.644;4.734;2023-04-06T08:16:16;9.80;99.90
17489;DHT22;8861;52.644;4.734;2023-04-06T08:18:43;9.90;99.90
17489;DHT22;8861;52.644;4.734;2023-04-06T08:21:11;10.00;99.90
17489;DHT22;8861;52.644;4.734;2023-04-06T08:23:38;10.00;99.90
17489;DHT22;8861;52.644;4.734;2023-04-06T08:26:05;10.10;99.90
17489;DHT22;8861;52.644;4.734;2023-04-06T08:28:31;10.20;99.90
17489;DHT22;8861;52.644;4.734;2023-04-06T08:31:03;10.30;99.90
17489;DHT22;8861;52.644;4.734;2023-04-06T08:33:32;10.40;99.90
17489;DHT22;8861;52.644;4.734;2023-04-06T08:36:07;10.50;99.90
17489;DHT22;8861;52.644;4.734;2023-04-06T08:38:34;10.60;99.90
17489;DHT22;8861;52.644;4.734;2023-04-06T08:41:07;10.60;99.90
17489;DHT22;8861;52.644;4.734;2023-04-06T08:43:35;10.60;99.90
17489;DHT22;8861;52.644;4.734;2023-04-06T08:46:05;10.60;99.90
17489;DHT22;8861;52.644;4.734;2023-04-06T08:48:33;10.70;99.90
17489;DHT22;8861;52.644;4.734;2023-04-06T08:51:02;10.80;99.90
17489;DHT22;8861;52.644;4.734;2023-04-06T08:53:29;10.90;99.90
17489;DHT22;8861;52.644;4.734;2023-04-06T08:55:58;10.90;99.90
17489;DHT22;8861;52.644;4.734;2023-04-06T08:58:27;11.00;99.90
17489;DHT22;8861;52.644;4.734;2023-04-06T09:00:55;11.00;99.90
17489;DHT22;8861;52.644;4.734;2023-04-06T09:03:22;11.00;99.90
17489;DHT22;8861;52.644;4.734;2023-04-06T09:05:52;10.90;99.90
17489;DHT22;8861;52.644;4.734;2023-04-06T09:08:19;10.90;99.90
17489;DHT22;8861;52.644;4.734;2023-04-06T09:10:46;10.90;99.90
17489;DHT22;8861;52.644;4.734;2023-04-06T09:13:14;10.90;99.90
17489;DHT22;8861;52.644;4.734;2023-04-06T09:15:41;10.70;99.90
17489;DHT22;8861;52.644;4.734;2023-04-06T09:18:08;10.60;99.90
17489;DHT22;8861;52.644;4.734;2023-04-06T09:20:35;10.60;99.90
17489;DHT22;8861;52.644;4.734;2023-04-06T09:23:03;10.50;99.90
17489;DHT22;8861;52.644;4.734;2023-04-06T09:25:30;10.40;99.90
17489;DHT22;8861;52.644;4.734;2023-04-06T09:28:02;10.30;99.90
17489;DHT22;8861;52.644;4.734;2023-04-06T09:30:30;10.20;99.90
17489;DHT22;8861;52.644;4.734;2023-04-06T09:32:58;10.20;99.90
17489;DHT22;8861;52.644;4.734;2023-04-06T09:35:25;10.10;99.90
17489;DHT22;8861;52.644;4.734;2023-04-06T09:37:53;10.00;99.90
17489;DHT22;8861;52.644;4.734;2023-04-06T09:40:22;10.00;99.90
17489;DHT22;8861;52.644;4.734;2023-04-06T09:42:50;9.90;99.90
17489;DHT22;8861;52.644;4.734;2023-04-06T09:45:19;9.90;99.90
17489;DHT22;8861;52.644;4.734;2023-04-06T09:47:46;10.00;99.90
17489;DHT22;8861;52.644;4.734;2023-04-06T09:50:14;10.00;99.90
17489;DHT22;8861;52.644;4.734;2023-04-06T09:52:46;10.00;99.90
17489;DHT22;8861;52.644;4.734;2023-04-06T09:55:43;9.90;99.90
17489;DHT22;8861;52.644;4.734;2023-04-06T09:58:13;9.90;99.90
17489;DHT22;8861;52.644;4.734;2023-04-06T10:00:48;9.90;99.90
17489;DHT22;8861;52.644;4.734;2023-04-06T10:03:24;9.80;99.90
17489;DHT22;8861;52.644;4.734;2023-04-06T10:05:55;9.80;99.90
17489;DHT22;8861;52.644;4.734;2023-04-06T10:08:27;9.80;99.90
17489;DHT22;8861;52.644;4.734;2023-04-06T10:10:56;9.80;99.90
17489;DHT22;8861;52.644;4.734;2023-04-06T10:13:23;9.80;99.90
17489;DHT22;8861;52.644;4.734;2023-04-06T10:15:52;9.90;99.90
17489;DHT22;8861;52.644;4.734;2023-04-06T10:18:19;9.90;99.90
17489;DHT22;8861;52.644;4.734;2023-04-06T10:20:49;10.00;99.90
17489;DHT22;8861;52.644;4.734;2023-04-06T10:23:22;10.00;99.90
17489;DHT22;8861;52.644;4.734;2023-04-06T10:25:56;10.00;99.90
17489;DHT22;8861;52.644;4.734;2023-04-06T10:28:23;10.10;99.90
17489;DHT22;8861;52.644;4.734;2023-04-06T10:30:57;10.00;99.90
17489;DHT22;8861;52.644;4.734;2023-04-06T10:33:24;10.00;99.90
17489;DHT22;8861;52.644;4.734;2023-04-06T10:35:51;10.00;99.90
17489;DHT22;8861;52.644;4.734;2023-04-06T10:38:19;10.10;99.90
17489;DHT22;8861;52.644;4.734;2023-04-06T10:40:47;10.10;99.90
17489;DHT22;8861;52.644;4.734;2023-04-06T10:43:20;10.20;99.90
17489;DHT22;8861;52.644;4.734;2023-04-06T10:45:55;10.20;99.90
17489;DHT22;8861;52.644;4.734;2023-04-06T10:48:23;10.20;99.90
17489;DHT22;8861;52.644;4.734;2023-04-06T10:50:52;10.20;99.90
17489;DHT22;8861;52.644;4.734;2023-04-06T10:53:22;10.20;99.90
17489;DHT22;8861;52.644;4.734;2023-04-06T10:55:50;10.20;99.90
17489;DHT22;8861;52.644;4.734;2023-04-06T10:58:18;10.30;99.90
17489;DHT22;8861;52.644;4.734;2023-04-06T11:00:46;10.40;99.90
17489;DHT22;8861;52.644;4.734;2023-04-06T11:03:14;10.40;99.90
17489;DHT22;8861;52.644;4.734;2023-04-06T11:05:44;10.40;99.90
17489;DHT22;8861;52.644;4.734;2023-04-06T11:08:22;10.40;99.90
17489;DHT22;8861;52.644;4.734;2023-04-06T11:10:49;10.40;99.90
17489;DHT22;8861;52.644;4.734;2023-04-06T11:13:16;10.30;99.90
17489;DHT22;8861;52.644;4.734;2023-04-06T11:15:44;10.30;99.90
17489;DHT22;8861;52.644;4.734;2023-04-06T11:18:11;10.20;99.90
17489;DHT22;8861;52.644;4.734;2023-04-06T11:20:38;10.20;99.90
17489;DHT22;8861;52.644;4.734;2023-04-06T11:23:05;10.30;99.90
17489;DHT22;8861;52.644;4.734;2023-04-06T11:25:32;10.40;99.90
17489;DHT22;8861;52.644;4.734;2023-04-06T11:27:59;10.50;99.90
17489;DHT22;8861;52.644;4.734;2023-04-06T11:30:26;10.50;99.90
17489;DHT22;8861;52.644;4.734;2023-04-06T11:33:00;10.50;99.90
17489;DHT22;8861;52.644;4.734;2023-04-06T11:35:31;10.50;99.90
17489;DHT22;8861;52.644;4.734;2023-04-06T11:38:03;10.50;99.90
17489;DHT22;8861;52.644;4.734;2023-04-06T11:40:30;10.50;99.90
17489;DHT22;8861;52.644;4.734;2023-04-06T11:42:58;10.50;99.90
17489;DHT22;8861;52.644;4.734;2023-04-06T11:45:25;10.50;99.90
17489;DHT22;8861;52.644;4.734;2023-04-06T11:47:59;10.50;99.90
17489;DHT22;8861;52.644;4.734;2023-04-06T11:50:31;10.50;99.90
17489;DHT22;8861;52.644;4.734;2023-04-06T11:53:00;10.40;99.90
17489;DHT22;8861;52.644;4.734;2023-04-06T11:55:27;10.30;99.90
17489;DHT22;8861;52.644;4.734;2023-04-06T11:57:54;10.30;99.90
17489;DHT22;8861;52.644;4.734;2023-04-06T12:00:21;10.30;99.90
17489;DHT22;8861;52.644;4.734;2023-04-06T12:02:49;10.10;99.90
17489;DHT22;8861;52.644;4.734;2023-04-06T12:05:17;10.00;99.90
17489;DHT22;8861;52.644;4.734;2023-04-06T12:07:44;9.90;99.90
17489;DHT22;8861;52.644;4.734;2023-04-06T12:10:12;10.00;99.90
17489;DHT22;8861;52.644;4.734;2023-04-06T12:12:39;10.00;99.90
17489;DHT22;8861;52.644;4.734;2023-04-06T12:15:07;10.10;99.90
17489;DHT22;8861;52.644;4.734;2023-04-06T12:17:34;10.10;99.90
17489;DHT22;8861;52.644;4.734;2023-04-06T12:20:02;10.20;99.90
17489;DHT22;8861;52.644;4.734;2023-04-06T12:22:31;10.30;99.90
17489;DHT22;8861;52.644;4.734;2023-04-06T12:24:58;10.40;99.90
17489;DHT22;8861;52.644;4.734;2023-04-06T12:27:25;10.40;99.90
17489;DHT22;8861;52.644;4.734;2023-04-06T12:29:53;10.40;99.90
17489;DHT22;8861;52.644;4.734;2023-04-06T12:32:21;10.30;99.90
17489;DHT22;8861;52.644;4.734;2023-04-06T12:34:48;10.20;99.90
17489;DHT22;8861;52.644;4.734;2023-04-06T12:37:15;10.20;99.90
17489;DHT22;8861;52.644;4.734;2023-04-06T12:39:43;10.20;99.90
17489;DHT22;8861;52.644;4.734;2023-04-06T12:42:11;10.20;99.90
17489;DHT22;8861;52.644;4.734;2023-04-06T12:44:38;10.20;99.90
17489;DHT22;8861;52.644;4.734;2023-04-06T12:47:05;10.20;99.90
17489;DHT22;8861;52.644;4.734;2023-04-06T12:49:32;10.10;99.90
17489;DHT22;8861;52.644;4.734;2023-04-06T12:52:00;10.10;99.90
17489;DHT22;8861;52.644;4.734;2023-04-06T12:54:27;10.10;99.90
17489;DHT22;8861;52.644;4.734;2023-04-06T12:56:56;10.00;99.90
17489;DHT22;8861;52.644;4.734;2023-04-06T12:59:23;10.00;99.90
17489;DHT22;8861;52.644;4.734;2023-04-06T13:01:50;10.00;99.90
17489;DHT22;8861;52.644;4.734;2023-04-06T13:04:18;9.90;99.90
17489;DHT22;8861;52.644;4.734;2023-04-06T13:06:45;9.80;99.90
17489;DHT22;8861;52.644;4.734;2023-04-06T13:09:12;9.70;99.90
17489;DHT22;8861;52.644;4.734;2023-04-06T13:11:39;9.60;99.90
17489;DHT22;8861;52.644;4.734;2023-04-06T13:14:08;9.60;99.90
17489;DHT22;8861;52.644;4.734;2023-04-06T13:16:35;9.50;99.90
17489;DHT22;8861;52.644;4.734;2023-04-06T13:19:03;9.40;99.90
17489;DHT22;8861;52.644;4.734;2023-04-06T13:21:30;9.40;99.90
17489;DHT22;8861;52.644;4.734;2023-04-06T13:23:57;9.30;99.90
17489;DHT22;8861;52.644;4.734;2023-04-06T13:26:24;9.30;99.90
17489;DHT22;8861;52.644;4.734;2023-04-06T13:28:51;9.20;99.90
17489;DHT22;8861;52.644;4.734;2023-04-06T13:31:19;9.30;99.90
17489;DHT22;8861;52.644;4.734;2023-04-06T13:33:46;9.20;99.90
17489;DHT22;8861;52.644;4.734;2023-04-06T13:36:13;9.20;99.90
17489;DHT22;8861;52.644;4.734;2023-04-06T13:38:41;9.20;99.90
17489;DHT22;8861;52.644;4.734;2023-04-06T13:41:08;9.10;99.90
17489;DHT22;8861;52.644;4.734;2023-04-06T13:43:35;9.10;99.90
17489;DHT22;8861;52.644;4.734;2023-04-06T13:46:02;9.10;99.90
17489;DHT22;8861;52.644;4.734;2023-04-06T13:48:31;9.10;99.90
17489;DHT22;8861;52.644;4.734;2023-04-06T13:50:58;9.00;99.90
17489;DHT22;8861;52.644;4.734;2023-04-06T13:53:34;9.10;99.90
17489;DHT22;8861;52.644;4.734;2023-04-06T13:56:01;9.10;99.90
17489;DHT22;8861;52.644;4.734;2023-04-06T13:58:27;9.10;99.90
17489;DHT22;8861;52.644;4.734;2023-04-06T14:00:55;9.10;99.90
17489;DHT22;8861;52.644;4.734;2023-04-06T14:03:22;9.10;99.90
17489;DHT22;8861;52.644;4.734;2023-04-06T14:05:50;9.20;99.90
17489;DHT22;8861;52.644;4.734;2023-04-06T14:08:17;9.20;99.90
17489;DHT22;8861;52.644;4.734;2023-04-06T14:10:44;9.10;99.90
17489;DHT22;8861;52.644;4.734;2023-04-06T14:13:11;9.20;99.90
17489;DHT22;8861;52.644;4.734;2023-04-06T14:15:38;9.20;99.90
17489;DHT22;8861;52.644;4.734;2023-04-06T14:18:05;9.10;99.90
17489;DHT22;8861;52.644;4.734;2023-04-06T14:20:32;9.10;99.90
17489;DHT22;8861;52.644;4.734;2023-04-06T14:23:01;9.10;99.90
17489;DHT22;8861;52.644;4.734;2023-04-06T14:25:28;9.10;99.90
17489;DHT22;8861;52.644;4.734;2023-04-06T14:27:57;9.10;99.90
17489;DHT22;8861;52.644;4.734;2023-04-06T14:30:23;9.10;99.90
17489;DHT22;8861;52.644;4.734;2023-04-06T14:32:50;9.10;99.90
17489;DHT22;8861;52.644;4.734;2023-04-06T14:35:17;9.10;99.90
17489;DHT22;8861;52.644;4.734;2023-04-06T14:37:45;9.10;99.90
17489;DHT22;8861;52.644;4.734;2023-04-06T14:40:14;9.10;99.90
17489;DHT22;8861;52.644;4.734;2023-04-06T14:42:41;9.00;99.90
17489;DHT22;8861;52.644;4.734;2023-04-06T14:45:11;9.00;99.90
17489;DHT22;8861;52.644;4.734;2023-04-06T14:47:38;9.00;99.90
17489;DHT22;8861;52.644;4.734;2023-04-06T14:50:06;9.00;99.90
17489;DHT22;8861;52.644;4.734;2023-04-06T14:52:33;9.00;99.90
17489;DHT22;8861;52.644;4.734;2023-04-06T14:55:00;9.00;99.90
17489;DHT22;8861;52.644;4.734;2023-04-06T14:57:28;9.00;99.90
17489;DHT22;8861;52.644;4.734;2023-04-06T14:59:56;8.90;99.90
17489;DHT22;8861;52.644;4.734;2023-04-06T15:02:23;8.90;99.90
17489;DHT22;8861;52.644;4.734;2023-04-06T15:04:50;8.80;99.90
17489;DHT22;8861;52.644;4.734;2023-04-06T15:07:17;8.80;99.90
17489;DHT22;8861;52.644;4.734;2023-04-06T15:09:44;8.80;99.90
17489;DHT22;8861;52.644;4.734;2023-04-06T15:12:11;8.80;99.90
17489;DHT22;8861;52.644;4.734;2023-04-06T15:14:39;8.70;99.90
17489;DHT22;8861;52.644;4.734;2023-04-06T15:17:06;8.80;99.90
17489;DHT22;8861;52.644;4.734;2023-04-06T15:19:33;8.80;99.90
17489;DHT22;8861;52.644;4.734;2023-04-06T15:22:00;8.80;99.90
17489;DHT22;8861;52.644;4.734;2023-04-06T15:24:27;8.80;99.90
17489;DHT22;8861;52.644;4.734;2023-04-06T15:26:54;8.80;99.90
17489;DHT22;8861;52.644;4.734;2023-04-06T15:29:21;8.70;99.90
17489;DHT22;8861;52.644;4.734;2023-04-06T15:31:49;8.80;99.90
17489;DHT22;8861;52.644;4.734;2023-04-06T15:34:16;8.80;99.90
17489;DHT22;8861;52.644;4.734;2023-04-06T15:36:43;8.80;99.90
17489;DHT22;8861;52.644;4.734;2023-04-06T15:39:11;8.80;99.90
17489;DHT22;8861;52.644;4.734;2023-04-06T15:41:39;8.80;99.90
17489;DHT22;8861;52.644;4.734;2023-04-06T15:44:06;8.80;99.90
17489;DHT22;8861;52.644;4.734;2023-04-06T15:46:33;8.80;99.90
17489;DHT22;8861;52.644;4.734;2023-04-06T15:49:02;8.80;99.90
17489;DHT22;8861;52.644;4.734;2023-04-06T15:51:29;8.80;99.90
17489;DHT22;8861;52.644;4.734;2023-04-06T15:53:56;8.80;99.90
17489;DHT22;8861;52.644;4.734;2023-04-06T15:56:24;8.80;99.90
17489;DHT22;8861;52.644;4.734;2023-04-06T15:58:51;8.80;99.90